Terminal Aerodrome Forecast
Issued by NWS

Current Version | Previous Version | Text Only | Print | Product List | Glossary On
Versions: 1 2 3 4 5 6 7 8 9 10 11 12 13 14 15
000
FTUS42 TJSJ 041942 AAA
TAFJPS
TAF AMD
TJPS 041942Z 0420/0518 15011G20KT P6SM VCSH SCT025 BKN050
     FM042200 07005KT P6SM FEW030 SCT060
     FM050300 05005KT P6SM FEW030
      AMD NOT SKED TIL 050300=

USA.gov is the U.S. government's official web portal to all federal, state and local government web resources and services.